createdAt,value
2022-07-27T00:01:32.469Z,62.40
2022-07-27T00:04:01.027Z,62.40
2022-07-27T00:06:29.641Z,62.60
2022-07-27T00:08:58.283Z,62.50
2022-07-27T00:11:28.348Z,62.60
2022-07-27T00:13:56.827Z,62.70
2022-07-27T00:16:25.354Z,62.90
2022-07-27T00:18:54.162Z,63.20
2022-07-27T00:21:22.732Z,63.40
2022-07-27T00:23:51.169Z,63.70
2022-07-27T00:26:19.746Z,64.00
2022-07-27T00:28:49.702Z,64.20
2022-07-27T00:31:18.349Z,64.40
2022-07-27T00:33:46.866Z,64.40
2022-07-27T00:36:15.417Z,64.60
2022-07-27T00:38:44.070Z,64.70
2022-07-27T00:41:12.579Z,64.80
2022-07-27T00:43:55.974Z,64.80
2022-07-27T00:46:44.742Z,64.80
2022-07-27T00:49:13.661Z,64.80
2022-07-27T00:51:42.550Z,64.50
2022-07-27T00:54:11.248Z,65.40
2022-07-27T00:56:40.222Z,64.70
2022-07-27T00:59:09.534Z,64.70
2022-07-27T01:01:40.558Z,64.80
2022-07-27T01:04:10.711Z,65.10
2022-07-27T01:06:39.409Z,65.30
2022-07-27T01:09:25.045Z,65.50
2022-07-27T01:11:56.157Z,64.80
2022-07-27T01:14:27.941Z,64.10
2022-07-27T01:16:57.475Z,63.60
2022-07-27T01:19:27.834Z,63.40
2022-07-27T01:21:58.118Z,63.30
2022-07-27T01:24:26.767Z,63.40
2022-07-27T01:26:55.294Z,63.50
2022-07-27T01:29:23.964Z,63.70
2022-07-27T01:31:54.915Z,63.90
2022-07-27T01:34:23.798Z,64.20
2022-07-27T01:36:52.442Z,64.50
2022-07-27T01:39:22.551Z,64.70
2022-07-27T01:41:51.116Z,64.80
2022-07-27T01:44:19.633Z,65.00
2022-07-27T01:46:48.387Z,65.20
2022-07-27T01:49:17.411Z,65.50
2022-07-27T01:51:46.176Z,66.00
2022-07-27T01:54:14.837Z,66.50
2022-07-27T01:56:44.885Z,66.90
2022-07-27T01:59:16.571Z,67.20
2022-07-27T02:02:04.464Z,67.40
2022-07-27T02:04:33.175Z,67.50
2022-07-27T02:07:01.666Z,67.60
2022-07-27T02:09:30.318Z,67.90
2022-07-27T02:12:17.779Z,68.20
2022-07-27T02:14:46.462Z,68.30
2022-07-27T02:17:14.955Z,68.40
2022-07-27T02:19:44.063Z,68.70
2022-07-27T02:22:12.609Z,68.90
2022-07-27T02:24:41.377Z,69.10
2022-07-27T02:27:11.414Z,68.90
2022-07-27T02:29:40.116Z,69.00
2022-07-27T02:32:08.682Z,69.20
2022-07-27T02:34:37.232Z,69.20
2022-07-27T02:37:05.808Z,69.40
2022-07-27T02:39:34.281Z,69.40
2022-07-27T02:42:03.316Z,70.30
2022-07-27T02:44:34.937Z,69.90
2022-07-27T02:47:03.799Z,70.10
2022-07-27T02:49:32.272Z,70.30
2022-07-27T02:52:01.017Z,70.40
2022-07-27T02:54:31.917Z,70.50
2022-07-27T02:57:02.954Z,70.40
2022-07-27T02:59:33.187Z,70.30
2022-07-27T03:02:01.913Z,70.00
2022-07-27T03:04:30.670Z,69.80
2022-07-27T03:06:59.391Z,69.70
2022-07-27T03:09:33.342Z,69.60
2022-07-27T03:12:02.585Z,69.60
2022-07-27T03:14:32.553Z,69.70
2022-07-27T03:17:01.281Z,69.60
2022-07-27T03:19:30.522Z,69.60
2022-07-27T03:21:59.274Z,69.70
2022-07-27T03:24:27.826Z,69.80
2022-07-27T03:26:56.448Z,69.80
2022-07-27T03:29:25.089Z,70.00
2022-07-27T03:31:59.841Z,70.20
2022-07-27T03:34:28.490Z,70.30
2022-07-27T03:36:57.139Z,70.40
2022-07-27T03:39:25.815Z,70.50
2022-07-27T03:41:54.469Z,70.70
2022-07-27T03:44:23.041Z,70.80
2022-07-27T03:46:51.667Z,70.80
2022-07-27T03:49:21.646Z,70.90
2022-07-27T03:51:50.253Z,71.10
2022-07-27T03:54:19.280Z,71.20
2022-07-27T03:56:48.051Z,71.40
2022-07-27T03:59:16.792Z,71.60
2022-07-27T04:01:46.215Z,71.60
2022-07-27T04:04:15.205Z,71.60
2022-07-27T04:06:45.359Z,71.40
2022-07-27T04:09:14.748Z,71.40
2022-07-27T04:11:51.068Z,71.30
2022-07-27T04:14:20.533Z,71.30
2022-07-27T04:16:49.202Z,71.50
2022-07-27T04:19:17.845Z,71.40
2022-07-27T04:21:47.827Z,71.50
2022-07-27T04:24:16.423Z,71.40
2022-07-27T04:26:44.908Z,71.30
2022-07-27T04:29:19.652Z,71.20
2022-07-27T04:31:48.976Z,71.20
2022-07-27T04:34:17.603Z,71.20
2022-07-27T04:36:47.658Z,71.30
2022-07-27T04:39:16.593Z,71.20
2022-07-27T04:41:45.240Z,71.10
2022-07-27T04:44:14.082Z,71.00
2022-07-27T04:46:42.673Z,71.60
2022-07-27T04:49:11.615Z,70.90
2022-07-27T04:51:43.552Z,70.90
2022-07-27T04:54:13.938Z,70.70
2022-07-27T04:56:42.576Z,70.30
2022-07-27T04:59:11.842Z,70.20
2022-07-27T05:01:41.128Z,70.00
2022-07-27T05:04:10.007Z,69.90
2022-07-27T05:06:38.510Z,69.70
2022-07-27T05:09:07.023Z,70.10
2022-07-27T05:11:37.123Z,69.10
2022-07-27T05:14:05.806Z,68.90
2022-07-27T05:16:34.436Z,68.80
2022-07-27T05:19:03.095Z,68.40
2022-07-27T05:21:31.690Z,68.20
2022-07-27T05:24:00.820Z,68.00
2022-07-27T05:26:29.325Z,67.80
2022-07-27T05:28:59.664Z,67.60
2022-07-27T05:31:28.408Z,67.40
2022-07-27T05:33:58.392Z,67.30
2022-07-27T05:36:27.348Z,66.90
2022-07-27T05:38:55.897Z,66.50
2022-07-27T05:41:25.158Z,66.30
2022-07-27T05:43:54.697Z,65.90
2022-07-27T05:46:25.625Z,65.60
2022-07-27T05:48:56.134Z,65.30
2022-07-27T05:51:24.723Z,64.80
2022-07-27T05:53:53.207Z,64.20
2022-07-27T05:56:21.867Z,63.70
2022-07-27T05:58:50.566Z,63.40
2022-07-27T06:01:19.153Z,63.40
2022-07-27T06:03:49.236Z,63.10
2022-07-27T06:06:35.288Z,63.00
2022-07-27T06:09:04.123Z,62.50
2022-07-27T06:11:32.769Z,62.40
2022-07-27T06:14:01.380Z,62.20
2022-07-27T06:16:30.049Z,62.10
2022-07-27T06:19:00.254Z,61.80
2022-07-27T06:21:29.169Z,61.60
2022-07-27T06:23:57.665Z,61.50
2022-07-27T06:26:26.324Z,61.10
2022-07-27T06:28:58.987Z,60.80
2022-07-27T06:31:28.419Z,60.60
2022-07-27T06:34:11.505Z,60.30
2022-07-27T06:36:42.654Z,60.20
2022-07-27T06:39:11.560Z,60.00
2022-07-27T06:41:40.423Z,59.60
2022-07-27T06:44:12.014Z,59.30
2022-07-27T06:46:40.691Z,59.20
2022-07-27T06:49:11.111Z,59.00
2022-07-27T06:51:40.191Z,59.00
2022-07-27T06:54:08.750Z,58.70
2022-07-27T06:56:37.383Z,59.10
2022-07-27T06:59:06.187Z,58.40
2022-07-27T07:01:34.865Z,58.40
2022-07-27T07:04:03.535Z,58.30
2022-07-27T07:06:33.689Z,58.10
2022-07-27T07:09:02.486Z,58.00
2022-07-27T07:11:31.073Z,57.70
2022-07-27T07:14:00.745Z,57.50
2022-07-27T07:16:29.483Z,57.30
2022-07-27T07:18:58.234Z,57.20
2022-07-27T07:21:26.984Z,57.10
2022-07-27T07:23:57.012Z,57.40
2022-07-27T07:26:25.655Z,57.30
2022-07-27T07:28:54.295Z,57.50
2022-07-27T07:31:23.035Z,57.10
2022-07-27T07:33:51.808Z,57.10
2022-07-27T07:36:20.464Z,57.20
2022-07-27T07:38:48.990Z,57.00
2022-07-27T07:41:19.092Z,56.70
2022-07-27T07:43:47.782Z,56.30
2022-07-27T07:46:16.492Z,56.30
2022-07-27T07:49:03.585Z,56.00
2022-07-27T07:51:32.324Z,55.70
2022-07-27T07:54:01.093Z,55.90
2022-07-27T07:56:31.182Z,55.70
2022-07-27T07:58:59.845Z,55.00
2022-07-27T08:01:28.319Z,54.50
2022-07-27T08:03:56.996Z,54.10
2022-07-27T08:06:25.466Z,53.90
2022-07-27T08:08:54.047Z,53.50
2022-07-27T08:11:22.634Z,53.20
2022-07-27T08:13:52.621Z,53.00
2022-07-27T08:16:21.396Z,52.50
2022-07-27T08:18:50.003Z,52.00
2022-07-27T08:21:18.506Z,51.30
2022-07-27T08:23:47.113Z,50.80
2022-07-27T08:26:15.635Z,49.90
2022-07-27T08:28:45.076Z,49.40
2022-07-27T08:31:17.913Z,48.50
2022-07-27T08:33:51.584Z,47.70
2022-07-27T08:36:20.210Z,46.90
2022-07-27T08:38:48.745Z,46.20
2022-07-27T08:41:18.104Z,45.20
2022-07-27T08:43:49.140Z,44.30
2022-07-27T08:46:19.833Z,43.80
2022-07-27T08:48:48.736Z,42.90
2022-07-27T08:51:17.355Z,41.40
2022-07-27T08:53:52.990Z,40.90
2022-07-27T08:56:22.621Z,39.80
2022-07-27T08:58:51.276Z,39.00
2022-07-27T09:01:21.609Z,38.20
2022-07-27T09:03:50.540Z,37.20
2022-07-27T09:06:33.826Z,36.60
2022-07-27T09:09:02.550Z,36.30
2022-07-27T09:11:32.614Z,35.40
2022-07-27T09:14:03.901Z,35.10
2022-07-27T09:17:14.896Z,35.00
2022-07-27T09:19:23.185Z,34.20
2022-07-27T09:21:51.714Z,34.10
2022-07-27T09:24:45.650Z,34.40
2022-07-27T09:27:11.096Z,34.00
2022-07-27T09:29:39.706Z,33.10
2022-07-27T09:32:17.081Z,32.70
2022-07-27T09:34:46.400Z,32.20
2022-07-27T09:37:24.335Z,32.40
2022-07-27T09:40:10.683Z,32.10
2022-07-27T09:45:34.087Z,31.40
2022-07-27T09:48:11.148Z,31.20
2022-07-27T09:51:05.528Z,31.20
2022-07-27T09:53:51.065Z,31.60
2022-07-27T09:56:25.918Z,31.10
2022-07-27T09:58:55.976Z,31.20
2022-07-27T10:01:25.452Z,31.70
2022-07-27T10:03:56.385Z,32.00
2022-07-27T10:06:25.856Z,32.30
2022-07-27T10:08:55.775Z,32.10
2022-07-27T10:11:24.832Z,32.00
2022-07-27T10:13:54.158Z,31.70
2022-07-27T10:16:24.070Z,31.80
2022-07-27T10:18:57.952Z,31.90
2022-07-27T10:21:28.157Z,31.90
2022-07-27T10:23:57.673Z,31.20
2022-07-27T10:26:32.560Z,31.10
2022-07-27T10:29:02.329Z,30.90
2022-07-27T10:31:32.044Z,31.10
2022-07-27T10:34:02.928Z,31.20
2022-07-27T10:36:48.207Z,31.30
2022-07-27T10:39:37.518Z,31.30
2022-07-27T10:42:22.842Z,30.90
2022-07-27T10:45:09.142Z,30.90
2022-07-27T10:47:39.344Z,31.30
2022-07-27T10:50:38.156Z,31.20
2022-07-27T10:53:48.968Z,31.00
2022-07-27T10:56:42.261Z,30.80
2022-07-27T10:59:10.961Z,30.80
2022-07-27T11:01:56.318Z,31.00
2022-07-27T11:04:25.501Z,30.70
2022-07-27T11:07:23.469Z,30.30
2022-07-27T11:10:04.668Z,30.30
2022-07-27T11:12:33.846Z,30.10
2022-07-27T11:15:02.546Z,30.10
2022-07-27T11:17:54.707Z,29.90
2022-07-27T11:20:23.704Z,29.80
2022-07-27T11:25:42.527Z,28.90
2022-07-27T11:28:11.342Z,29.00
2022-07-27T11:30:40.055Z,28.60
2022-07-27T11:33:08.940Z,28.60
2022-07-27T11:35:37.539Z,29.00
2022-07-27T11:38:07.830Z,27.20
2022-07-27T11:41:02.275Z,27.70
2022-07-27T11:43:38.149Z,27.70
2022-07-27T11:46:26.418Z,27.70
2022-07-27T11:49:11.848Z,28.20
2022-07-27T11:51:41.546Z,27.70
2022-07-27T11:54:11.223Z,27.10
2022-07-27T11:56:43.630Z,26.80
2022-07-27T11:59:14.088Z,26.40
2022-07-27T12:01:44.302Z,26.50
2022-07-27T12:04:18.993Z,26.30
2022-07-27T12:06:49.470Z,26.20
2022-07-27T12:09:19.367Z,25.70
2022-07-27T12:11:50.760Z,25.70
2022-07-27T12:14:39.990Z,25.50
2022-07-27T12:17:19.224Z,25.80
2022-07-27T12:19:56.085Z,26.10
2022-07-27T12:22:26.167Z,26.00
2022-07-27T12:24:54.963Z,25.90
2022-07-27T12:27:26.463Z,25.70
2022-07-27T12:29:59.454Z,25.70
2022-07-27T12:32:28.942Z,25.90
2022-07-27T12:34:57.656Z,26.30
2022-07-27T12:37:30.034Z,26.50
2022-07-27T12:39:58.643Z,26.70
2022-07-27T12:42:35.500Z,26.30
2022-07-27T12:45:14.767Z,26.30
2022-07-27T12:47:43.563Z,25.90
2022-07-27T12:50:13.643Z,26.00
2022-07-27T12:52:44.114Z,25.80
2022-07-27T12:55:15.957Z,25.90
2022-07-27T12:58:00.881Z,25.60
2022-07-27T13:00:34.062Z,25.80
2022-07-27T13:03:03.750Z,26.20
2022-07-27T13:05:32.824Z,26.60
2022-07-27T13:08:02.028Z,26.80
2022-07-27T13:10:30.686Z,26.50
2022-07-27T13:13:01.108Z,26.30
2022-07-27T13:15:29.692Z,26.40
2022-07-27T13:17:58.236Z,26.50
2022-07-27T13:20:27.136Z,27.50
2022-07-27T13:22:55.869Z,27.30
2022-07-27T13:25:24.496Z,27.40
2022-07-27T13:27:53.061Z,27.50
2022-07-27T13:30:24.758Z,27.80
2022-07-27T13:32:53.293Z,28.00
2022-07-27T13:35:21.858Z,28.20
2022-07-27T13:37:50.660Z,27.90
2022-07-27T13:40:19.672Z,28.30
2022-07-27T13:42:48.092Z,28.50
2022-07-27T13:45:16.710Z,28.90
2022-07-27T13:47:46.712Z,29.10
2022-07-27T13:50:19.827Z,29.40
2022-07-27T13:53:07.153Z,29.20
2022-07-27T13:55:36.768Z,29.10
2022-07-27T13:58:05.348Z,29.20
2022-07-27T14:00:33.937Z,29.20
2022-07-27T14:03:04.055Z,29.40
2022-07-27T14:05:34.958Z,29.50
2022-07-27T14:08:03.628Z,29.50
2022-07-27T14:10:41.831Z,29.60
2022-07-27T14:13:32.906Z,29.90
2022-07-27T14:16:03.083Z,30.10
2022-07-27T14:18:33.516Z,30.20
2022-07-27T14:21:04.437Z,30.40
2022-07-27T14:23:51.823Z,31.00
2022-07-27T14:26:20.501Z,31.20
2022-07-27T14:28:49.031Z,31.40
2022-07-27T14:31:17.856Z,31.60
2022-07-27T14:33:48.062Z,31.60
2022-07-27T14:36:16.778Z,31.50
2022-07-27T14:38:45.495Z,31.70
2022-07-27T14:41:14.115Z,31.60
2022-07-27T14:43:42.844Z,31.60
2022-07-27T14:46:11.537Z,32.00
2022-07-27T14:49:05.027Z,32.40
2022-07-27T14:51:30.143Z,32.60
2022-07-27T14:53:58.683Z,32.40
2022-07-27T14:56:27.245Z,32.50
2022-07-27T14:58:55.890Z,32.90
2022-07-27T15:01:24.598Z,33.30
2022-07-27T15:03:53.843Z,33.40
2022-07-27T15:06:22.454Z,33.60
2022-07-27T15:08:52.550Z,33.90
2022-07-27T15:11:21.157Z,34.00
2022-07-27T15:13:49.645Z,34.40
2022-07-27T15:16:18.389Z,34.60
2022-07-27T15:18:47.523Z,34.80
2022-07-27T15:21:16.308Z,34.40
2022-07-27T15:23:45.333Z,34.60
2022-07-27T15:26:15.397Z,34.80
2022-07-27T15:28:44.534Z,34.80
2022-07-27T15:31:13.661Z,34.60
2022-07-27T15:33:42.672Z,34.40
2022-07-27T15:36:32.473Z,34.70
2022-07-27T15:39:20.989Z,35.00
2022-07-27T15:41:51.728Z,35.00
2022-07-27T15:44:21.055Z,34.90
2022-07-27T15:46:49.710Z,34.80
2022-07-27T15:49:18.670Z,34.80
2022-07-27T15:51:48.330Z,34.80
2022-07-27T15:54:17.037Z,35.00
2022-07-27T15:56:46.225Z,35.10
2022-07-27T15:59:16.589Z,35.30
2022-07-27T16:01:47.092Z,35.40
2022-07-27T16:04:16.219Z,35.60
2022-07-27T16:06:44.823Z,35.80
2022-07-27T16:09:14.126Z,36.00
2022-07-27T16:11:43.095Z,36.10
2022-07-27T16:14:11.620Z,36.20
2022-07-27T16:16:41.730Z,36.40
2022-07-27T16:19:14.090Z,36.50
2022-07-27T16:21:54.430Z,36.70
2022-07-27T16:24:24.850Z,36.80
2022-07-27T16:26:53.615Z,36.90
2022-07-27T16:29:22.323Z,37.10
2022-07-27T16:31:58.139Z,37.20
2022-07-27T16:34:27.069Z,37.40
2022-07-27T16:36:55.661Z,37.50
2022-07-27T16:39:24.905Z,37.60
2022-07-27T16:41:53.379Z,37.90
2022-07-27T16:44:22.129Z,38.60
2022-07-27T16:46:52.313Z,38.00
2022-07-27T16:49:21.113Z,38.50
2022-07-27T16:52:01.980Z,38.00
2022-07-27T16:54:34.178Z,37.90
2022-07-27T16:57:05.903Z,37.80
2022-07-27T16:59:34.442Z,37.70
2022-07-27T17:02:04.700Z,37.70
2022-07-27T17:04:33.480Z,37.70
2022-07-27T17:07:01.952Z,38.30
2022-07-27T17:09:30.681Z,37.70
2022-07-27T17:11:59.173Z,37.70
2022-07-27T17:14:27.809Z,37.70
2022-07-27T17:16:56.522Z,37.70
2022-07-27T17:19:26.629Z,37.80
2022-07-27T17:21:55.141Z,37.60
2022-07-27T17:24:23.770Z,37.40
2022-07-27T17:26:55.465Z,37.40
2022-07-27T17:29:24.152Z,37.40
2022-07-27T17:31:53.054Z,37.30
2022-07-27T17:34:22.151Z,37.40
2022-07-27T17:36:52.161Z,37.40
2022-07-27T17:39:20.839Z,37.20
2022-07-27T17:41:50.135Z,37.30
2022-07-27T17:44:19.063Z,37.40
2022-07-27T17:46:47.946Z,37.50
2022-07-27T17:49:17.769Z,37.70
2022-07-27T17:51:46.820Z,37.80
2022-07-27T17:54:17.229Z,37.90
2022-07-27T17:56:45.938Z,38.00
2022-07-27T17:59:36.528Z,38.20
2022-07-27T18:02:03.997Z,38.20
2022-07-27T18:04:38.900Z,38.20
2022-07-27T18:07:08.241Z,38.30
2022-07-27T18:09:38.321Z,38.20
2022-07-27T18:12:07.601Z,38.20
2022-07-27T18:14:38.392Z,38.10
2022-07-27T18:17:07.438Z,38.10
2022-07-27T18:19:36.293Z,38.00
2022-07-27T18:22:06.560Z,38.00
2022-07-27T18:24:40.059Z,38.20
2022-07-27T18:27:12.818Z,38.30
2022-07-27T18:29:44.374Z,38.40
2022-07-27T18:32:34.120Z,39.10
2022-07-27T18:35:03.042Z,38.50
2022-07-27T18:37:32.178Z,38.60
2022-07-27T18:40:22.001Z,38.70
2022-07-27T18:42:51.713Z,38.70
2022-07-27T18:45:20.484Z,38.80
2022-07-27T18:47:49.909Z,38.80
2022-07-27T18:50:19.666Z,39.00
2022-07-27T18:52:49.788Z,39.00
2022-07-27T18:55:22.947Z,39.00
2022-07-27T18:57:55.735Z,39.10
2022-07-27T19:00:24.988Z,39.10
2022-07-27T19:02:56.643Z,39.30
2022-07-27T19:05:40.295Z,39.40
2022-07-27T19:08:13.751Z,39.50
2022-07-27T19:10:43.201Z,39.60
2022-07-27T19:13:15.757Z,39.80
2022-07-27T19:15:45.626Z,39.90
2022-07-27T19:18:17.382Z,40.00
2022-07-27T19:20:47.170Z,40.30
2022-07-27T19:23:17.523Z,40.40
2022-07-27T19:25:48.232Z,40.60
2022-07-27T19:28:23.426Z,40.80
2022-07-27T19:30:52.745Z,40.90
2022-07-27T19:33:22.611Z,41.20
2022-07-27T19:35:52.954Z,41.50
2022-07-27T19:38:21.660Z,41.60
2022-07-27T19:40:50.133Z,41.90
2022-07-27T19:43:20.258Z,42.00
2022-07-27T19:45:50.750Z,42.30
2022-07-27T19:48:19.479Z,42.40
2022-07-27T19:50:48.084Z,42.60
2022-07-27T19:53:35.842Z,42.70
2022-07-27T19:56:04.600Z,42.90
2022-07-27T19:58:34.596Z,43.10
2022-07-27T20:01:21.851Z,43.10
2022-07-27T20:03:53.982Z,43.30
2022-07-27T20:06:23.991Z,43.30
2022-07-27T20:08:55.943Z,43.40
2022-07-27T20:11:24.912Z,43.50
2022-07-27T20:13:54.892Z,43.60
2022-07-27T20:16:23.615Z,43.70
2022-07-27T20:18:52.210Z,43.60
2022-07-27T20:21:23.241Z,43.80
2022-07-27T20:23:52.445Z,43.90
2022-07-27T20:26:21.337Z,44.10
2022-07-27T20:28:50.337Z,44.30
2022-07-27T20:31:20.523Z,44.30
2022-07-27T20:33:49.108Z,44.40
2022-07-27T20:36:17.642Z,44.50
2022-07-27T20:38:46.419Z,44.60
2022-07-27T20:41:14.952Z,44.60
2022-07-27T20:43:43.630Z,44.70
2022-07-27T20:46:12.313Z,44.60
2022-07-27T20:48:46.060Z,44.60
2022-07-27T20:51:14.667Z,44.70
2022-07-27T20:53:43.422Z,44.60
2022-07-27T20:56:12.014Z,44.70
2022-07-27T20:58:40.711Z,44.70
2022-07-27T21:01:09.409Z,44.70
2022-07-27T21:03:38.522Z,44.80
2022-07-27T21:06:09.293Z,44.90
2022-07-27T21:08:42.834Z,45.00
2022-07-27T21:11:14.942Z,45.00
2022-07-27T21:13:43.591Z,45.10
2022-07-27T21:16:12.225Z,45.10
2022-07-27T21:18:40.851Z,45.10
2022-07-27T21:21:29.378Z,45.30
2022-07-27T21:24:15.572Z,45.30
2022-07-27T21:26:48.683Z,45.50
2022-07-27T21:29:17.864Z,46.20
2022-07-27T21:31:49.361Z,45.70
2022-07-27T21:34:19.595Z,45.80
2022-07-27T21:36:49.697Z,46.00
2022-07-27T21:39:19.563Z,46.20
2022-07-27T21:42:06.864Z,46.30
2022-07-27T21:44:35.538Z,46.50
2022-07-27T21:47:09.936Z,46.60
2022-07-27T21:49:42.046Z,46.90
2022-07-27T21:52:12.533Z,47.10
2022-07-27T21:54:41.505Z,47.30
2022-07-27T21:57:10.028Z,47.40
2022-07-27T21:59:38.634Z,47.50
2022-07-27T22:02:07.346Z,47.70
2022-07-27T22:04:36.297Z,47.80
2022-07-27T22:07:05.130Z,47.80
2022-07-27T22:09:35.226Z,47.90
2022-07-27T22:12:06.974Z,48.00
2022-07-27T22:14:35.544Z,48.00
2022-07-27T22:17:04.488Z,48.00
2022-07-27T22:19:33.335Z,48.10
2022-07-27T22:22:01.894Z,48.20
2022-07-27T22:24:30.451Z,48.20
2022-07-27T22:27:00.492Z,48.30
2022-07-27T22:29:28.956Z,48.40
2022-07-27T22:31:57.695Z,48.50
2022-07-27T22:34:26.326Z,48.70
2022-07-27T22:36:55.403Z,48.80
2022-07-27T22:39:23.972Z,49.00
2022-07-27T22:41:52.513Z,49.10
2022-07-27T22:44:22.913Z,49.30
2022-07-27T22:46:51.525Z,49.50
2022-07-27T22:49:20.109Z,49.80
2022-07-27T22:51:50.828Z,50.10
2022-07-27T22:54:21.653Z,50.40
2022-07-27T22:56:50.269Z,50.60
2022-07-27T22:59:18.800Z,50.90
2022-07-27T23:01:48.946Z,51.00
2022-07-27T23:04:18.494Z,51.40
2022-07-27T23:06:47.206Z,51.70
2022-07-27T23:09:16.158Z,52.00
2022-07-27T23:11:44.898Z,52.20
2022-07-27T23:14:14.094Z,52.50
2022-07-27T23:16:43.039Z,52.70
2022-07-27T23:19:13.093Z,52.80
2022-07-27T23:21:42.399Z,52.90
2022-07-27T23:24:11.887Z,53.10
2022-07-27T23:27:01.342Z,53.10
2022-07-27T23:29:30.109Z,53.30
2022-07-27T23:31:58.666Z,53.60
2022-07-27T23:34:29.390Z,53.70
2022-07-27T23:36:57.936Z,53.90
2022-07-27T23:39:27.738Z,54.00
2022-07-27T23:41:56.307Z,54.30
2022-07-27T23:44:24.831Z,54.30
2022-07-27T23:46:53.400Z,54.50
2022-07-27T23:49:22.088Z,54.40
2022-07-27T23:51:52.109Z,54.70
2022-07-27T23:54:20.665Z,54.80
2022-07-27T23:56:49.136Z,55.00
2022-07-27T23:59:17.721Z,55.20
